createdAt,value
2023-05-01T00:00:23.840Z,9.70
2023-05-01T00:02:53.116Z,10.13
2023-05-01T00:05:19.640Z,10.13
2023-05-01T00:07:46.128Z,10.98
2023-05-01T00:10:12.536Z,9.98
2023-05-01T00:12:38.980Z,10.20
2023-05-01T00:15:06.840Z,10.57
2023-05-01T00:17:33.343Z,11.85
2023-05-01T00:19:59.958Z,12.02
2023-05-01T00:22:26.751Z,12.68
2023-05-01T00:24:53.195Z,12.70
2023-05-01T00:27:19.596Z,11.35
2023-05-01T00:29:46.436Z,13.32
2023-05-01T00:32:12.947Z,12.98
2023-05-01T00:34:39.772Z,12.48
2023-05-01T00:37:06.199Z,11.73
2023-05-01T00:39:32.630Z,11.57
2023-05-01T00:41:59.073Z,12.02
2023-05-01T00:44:25.803Z,11.88
2023-05-01T00:46:52.223Z,12.65
2023-05-01T00:49:18.737Z,12.82
2023-05-01T00:51:49.450Z,12.63
2023-05-01T00:54:15.862Z,12.48
2023-05-01T00:56:42.809Z,12.27
2023-05-01T00:59:09.247Z,11.85
2023-05-01T01:01:35.843Z,13.90
2023-05-01T01:04:02.362Z,13.57
2023-05-01T01:06:37.784Z,12.55
2023-05-01T01:09:23.612Z,11.98
2023-05-01T01:12:07.531Z,11.60
2023-05-01T01:14:47.557Z,11.75
2023-05-01T01:17:21.161Z,11.63
2023-05-01T01:20:04.033Z,11.38
2023-05-01T01:22:31.920Z,11.70
2023-05-01T01:25:40.805Z,13.38
2023-05-01T01:28:34.603Z,12.75
2023-05-01T01:31:09.424Z,12.15
2023-05-01T01:33:44.825Z,12.57
2023-05-01T01:36:18.891Z,14.45
2023-05-01T01:39:03.664Z,13.82
2023-05-01T01:41:38.610Z,13.27
2023-05-01T01:44:29.855Z,12.90
2023-05-01T01:46:57.350Z,12.55
2023-05-01T01:49:27.641Z,12.68
2023-05-01T01:51:56.595Z,12.43
2023-05-01T01:54:33.445Z,11.88
2023-05-01T01:57:02.543Z,12.45
2023-05-01T01:59:32.954Z,12.90
2023-05-01T02:02:02.695Z,13.50
2023-05-01T02:04:31.492Z,11.85
2023-05-01T02:06:59.108Z,12.13
2023-05-01T02:09:28.061Z,13.23
2023-05-01T02:11:57.490Z,11.07
2023-05-01T02:14:26.901Z,11.95
2023-05-01T02:16:54.884Z,11.23
2023-05-01T02:19:21.525Z,11.23
2023-05-01T02:21:49.512Z,12.75
2023-05-01T02:24:18.255Z,12.13
2023-05-01T02:26:49.576Z,12.73
2023-05-01T02:29:16.078Z,11.82
2023-05-01T02:31:42.521Z,13.10
2023-05-01T02:34:09.308Z,11.63
2023-05-01T02:36:35.731Z,10.63
2023-05-01T02:39:02.339Z,11.40
2023-05-01T02:41:29.883Z,10.13
2023-05-01T02:44:01.782Z,11.27
2023-05-01T02:46:31.014Z,9.82
2023-05-01T02:49:01.645Z,10.75
2023-05-01T02:51:29.112Z,8.87
2023-05-01T02:53:56.300Z,9.43
2023-05-01T02:56:25.951Z,10.77
2023-05-01T02:58:53.656Z,9.88
2023-05-01T03:01:20.778Z,9.82
2023-05-01T03:03:47.825Z,10.73
2023-05-01T03:06:14.378Z,9.93
2023-05-01T03:08:40.987Z,9.70
2023-05-01T03:11:07.938Z,9.70
2023-05-01T03:13:35.183Z,10.43
2023-05-01T03:16:02.151Z,9.93
2023-05-01T03:18:28.595Z,9.80
2023-05-01T03:20:58.771Z,9.48
2023-05-01T03:23:27.963Z,9.55
2023-05-01T03:25:54.783Z,9.35
2023-05-01T03:28:23.497Z,9.65
2023-05-01T03:30:52.656Z,9.88
2023-05-01T03:33:19.344Z,10.48
2023-05-01T03:35:46.390Z,9.43
2023-05-01T03:38:13.454Z,9.93
2023-05-01T03:40:59.991Z,8.65
2023-05-01T03:43:52.687Z,10.10
2023-05-01T03:46:31.486Z,8.98
2023-05-01T03:48:58.031Z,9.93
2023-05-01T03:51:25.687Z,9.98
2023-05-01T03:53:56.624Z,9.60
2023-05-01T03:56:25.687Z,10.18
2023-05-01T03:58:54.848Z,8.68
2023-05-01T04:01:21.311Z,9.35
2023-05-01T04:03:48.325Z,9.00
2023-05-01T04:06:16.434Z,9.75
2023-05-01T04:08:43.159Z,8.77
2023-05-01T04:11:09.578Z,9.48
2023-05-01T04:13:36.073Z,8.75
2023-05-01T04:16:02.899Z,8.85
2023-05-01T04:18:29.367Z,9.68
2023-05-01T04:20:59.101Z,9.05
2023-05-01T04:23:25.691Z,8.80
2023-05-01T04:25:55.949Z,8.50
2023-05-01T04:28:22.447Z,9.50
2023-05-01T04:30:48.869Z,10.77
2023-05-01T04:33:15.713Z,9.40
2023-05-01T04:35:42.191Z,8.60
2023-05-01T04:38:10.395Z,7.28
2023-05-01T04:40:37.561Z,7.93
2023-05-01T04:43:04.285Z,7.78
2023-05-01T04:45:32.676Z,7.50
2023-05-01T04:47:59.864Z,8.25
2023-05-01T04:50:26.754Z,7.35
2023-05-01T04:52:53.251Z,6.93
2023-05-01T04:55:19.687Z,7.32
2023-05-01T04:58:10.433Z,7.45
2023-05-01T05:00:36.954Z,6.65
2023-05-01T05:03:06.727Z,6.50
2023-05-01T05:05:33.294Z,6.20
2023-05-01T05:08:00.213Z,6.30
2023-05-01T05:10:49.053Z,6.57
2023-05-01T05:13:35.769Z,7.43
2023-05-01T05:16:09.076Z,6.32
2023-05-01T05:18:35.530Z,6.82
2023-05-01T05:21:06.403Z,6.40
2023-05-01T05:23:32.899Z,5.82
2023-05-01T05:26:01.621Z,6.28
2023-05-01T05:28:28.480Z,6.20
2023-05-01T05:30:55.919Z,6.55
2023-05-01T05:33:24.987Z,6.05
2023-05-01T05:35:52.763Z,5.63
2023-05-01T05:40:54.149Z,6.00
2023-05-01T05:43:21.225Z,6.15
2023-05-01T05:45:47.688Z,6.13
2023-05-01T05:48:14.316Z,5.55
2023-05-01T05:50:41.241Z,6.60
2023-05-01T05:53:09.852Z,6.30
2023-05-01T05:55:37.001Z,5.93
2023-05-01T05:58:05.703Z,4.95
2023-05-01T06:00:32.329Z,5.85
2023-05-01T06:03:03.905Z,5.40
2023-05-01T06:05:31.275Z,5.68
2023-05-01T06:07:57.762Z,5.80
2023-05-01T06:10:24.258Z,5.78
2023-05-01T06:12:54.912Z,5.32
2023-05-01T06:15:38.228Z,4.93
2023-05-01T06:18:05.565Z,6.28
2023-05-01T06:20:32.248Z,5.32
2023-05-01T06:22:58.734Z,5.20
2023-05-01T06:25:37.988Z,4.90
2023-05-01T06:28:04.550Z,5.78
2023-05-01T06:30:32.682Z,5.43
2023-05-01T06:32:59.201Z,5.38
2023-05-01T06:35:25.729Z,5.43
2023-05-01T06:37:52.148Z,5.15
2023-05-01T06:40:19.247Z,4.38
2023-05-01T06:42:45.745Z,5.50
2023-05-01T06:45:12.175Z,5.00
2023-05-01T06:47:38.646Z,4.90
2023-05-01T06:50:06.023Z,5.13
2023-05-01T06:52:33.227Z,5.35
2023-05-01T06:54:59.716Z,5.30
2023-05-01T06:57:26.160Z,4.90
2023-05-01T06:59:52.586Z,5.47
2023-05-01T07:02:19.071Z,4.82
2023-05-01T07:04:45.584Z,3.90
2023-05-01T07:07:12.039Z,4.88
2023-05-01T07:09:38.753Z,4.90
2023-05-01T07:12:06.743Z,5.43
2023-05-01T07:14:34.812Z,4.95
2023-05-01T07:17:02.256Z,5.40
2023-05-01T07:19:28.867Z,5.00
2023-05-01T07:21:55.280Z,4.43
2023-05-01T07:24:21.690Z,4.53
2023-05-01T07:26:48.090Z,5.15
2023-05-01T07:29:16.425Z,4.53
2023-05-01T07:31:43.372Z,4.93
2023-05-01T07:34:10.187Z,5.07
2023-05-01T07:36:36.589Z,4.35
2023-05-01T07:39:03.841Z,4.75
2023-05-01T07:41:31.206Z,4.00
2023-05-01T07:44:00.862Z,5.00
2023-05-01T07:46:27.374Z,3.97
2023-05-01T07:48:53.897Z,4.55
2023-05-01T07:51:20.334Z,4.50
2023-05-01T07:53:47.385Z,4.00
2023-05-01T07:56:13.786Z,4.22
2023-05-01T07:58:42.487Z,4.53
2023-05-01T08:01:09.229Z,3.90
2023-05-01T08:03:35.981Z,3.70
2023-05-01T08:06:02.507Z,4.05
2023-05-01T08:08:28.966Z,4.20
2023-05-01T08:10:55.394Z,4.70
2023-05-01T08:13:21.940Z,3.08
2023-05-01T08:15:49.548Z,4.03
2023-05-01T08:18:20.348Z,4.10
2023-05-01T08:23:15.852Z,3.90
2023-05-01T08:25:42.345Z,3.45
2023-05-01T08:28:09.416Z,3.28
2023-05-01T08:30:35.843Z,3.83
2023-05-01T08:33:02.326Z,3.53
2023-05-01T08:35:29.373Z,4.03
2023-05-01T08:37:55.843Z,4.10
2023-05-01T08:40:23.977Z,3.83
2023-05-01T08:42:51.227Z,3.97
2023-05-01T08:45:19.838Z,3.30
2023-05-01T08:47:47.971Z,3.65
2023-05-01T08:50:16.390Z,3.90
2023-05-01T08:52:44.102Z,3.95
2023-05-01T08:55:15.119Z,3.88
2023-05-01T08:57:46.536Z,3.97
2023-05-01T09:00:20.919Z,3.83
2023-05-01T09:02:49.359Z,3.83
2023-05-01T09:05:17.256Z,3.40
2023-05-01T09:07:46.004Z,3.10
2023-05-01T09:10:14.085Z,3.45
2023-05-01T09:12:41.981Z,3.15
2023-05-01T09:15:09.634Z,3.40
2023-05-01T09:17:36.896Z,3.38
2023-05-01T09:20:07.711Z,3.58
2023-05-01T09:22:34.860Z,3.25
2023-05-01T09:25:02.092Z,3.90
2023-05-01T09:27:29.700Z,3.40
2023-05-01T09:29:56.425Z,3.78
2023-05-01T09:32:25.781Z,3.58
2023-05-01T09:34:52.890Z,3.08
2023-05-01T09:37:30.850Z,3.55
2023-05-01T09:40:10.597Z,3.47
2023-05-01T09:42:49.500Z,3.17
2023-05-01T09:45:16.168Z,3.63
2023-05-01T09:47:46.640Z,3.53
2023-05-01T09:50:34.351Z,4.10
2023-05-01T09:53:06.404Z,3.97
2023-05-01T09:55:33.734Z,3.22
2023-05-01T09:58:00.464Z,4.07
2023-05-01T10:00:27.139Z,3.35
2023-05-01T10:02:54.009Z,3.65
2023-05-01T10:05:20.544Z,3.60
2023-05-01T10:07:58.987Z,3.45
2023-05-01T10:10:25.728Z,3.72
2023-05-01T10:12:52.288Z,3.70
2023-05-01T10:15:25.272Z,4.32
2023-05-01T10:17:53.651Z,3.80
2023-05-01T10:20:20.332Z,3.72
2023-05-01T10:22:47.195Z,4.30
2023-05-01T10:25:14.047Z,3.85
2023-05-01T10:27:41.165Z,4.00
2023-05-01T10:30:09.431Z,4.32
2023-05-01T10:32:37.788Z,4.30
2023-05-01T10:35:11.269Z,3.90
2023-05-01T10:37:48.592Z,4.13
2023-05-01T10:40:40.217Z,3.72
2023-05-01T10:43:13.432Z,3.30
2023-05-01T10:45:39.856Z,3.75
2023-05-01T10:48:06.301Z,4.80
2023-05-01T10:50:34.663Z,3.80
2023-05-01T10:53:09.975Z,3.67
2023-05-01T10:55:37.828Z,4.22
2023-05-01T10:58:04.456Z,3.83
2023-05-01T11:00:32.459Z,4.88
2023-05-01T11:03:23.471Z,4.22
2023-05-01T11:08:38.291Z,4.20
2023-05-01T11:11:19.991Z,4.07
2023-05-01T11:14:05.935Z,4.18
2023-05-01T11:16:44.190Z,4.00
2023-05-01T11:19:22.694Z,4.78
2023-05-01T11:21:50.521Z,3.50
2023-05-01T11:24:19.666Z,4.50
2023-05-01T11:26:47.276Z,4.45
2023-05-01T11:59:46.110Z,4.85
2023-05-01T12:02:19.866Z,5.30
2023-05-01T12:04:46.878Z,4.57
2023-05-01T12:07:23.313Z,4.40
2023-05-01T12:09:51.323Z,4.70
2023-05-01T12:12:18.111Z,5.47
2023-05-01T12:14:44.716Z,4.57
2023-05-01T12:17:12.274Z,4.50
2023-05-01T12:19:48.878Z,4.88
2023-05-01T12:22:15.383Z,4.85
2023-05-01T12:24:55.207Z,4.50
2023-05-01T12:27:21.726Z,4.65
2023-05-01T12:29:48.310Z,4.90
2023-05-01T12:32:15.549Z,5.32
2023-05-01T12:34:42.103Z,5.43
2023-05-01T12:37:09.845Z,5.13
2023-05-01T12:39:38.657Z,5.72
2023-05-01T12:42:13.053Z,5.32
2023-05-01T12:44:39.547Z,6.05
2023-05-01T12:47:07.924Z,5.72
2023-05-01T12:49:38.391Z,6.07
2023-05-01T12:52:07.193Z,5.43
2023-05-01T12:54:37.754Z,5.88
2023-05-01T12:57:15.380Z,5.55
2023-05-01T12:59:44.233Z,5.82
2023-05-01T13:02:12.779Z,6.30
2023-05-01T13:04:39.967Z,5.50
2023-05-01T13:07:15.073Z,5.35
2023-05-01T13:09:55.282Z,5.60
2023-05-01T13:12:22.652Z,5.07
2023-05-01T13:14:50.059Z,5.95
2023-05-01T13:17:29.375Z,5.65
2023-05-01T13:19:56.949Z,5.10
2023-05-01T13:22:33.371Z,5.40
2023-05-01T13:25:01.355Z,5.07
2023-05-01T13:27:28.700Z,5.10
2023-05-01T13:29:58.110Z,5.80
2023-05-01T13:32:27.865Z,5.55
2023-05-01T13:34:54.398Z,6.43
2023-05-01T13:37:21.366Z,6.20
2023-05-01T13:39:48.244Z,5.25
2023-05-01T13:42:32.565Z,5.88
2023-05-01T13:44:58.998Z,5.30
2023-05-01T13:47:27.444Z,6.18
2023-05-01T13:49:54.098Z,5.80
2023-05-01T13:52:20.834Z,5.80
2023-05-01T13:54:48.462Z,6.05
2023-05-01T13:57:16.087Z,5.15
2023-05-01T13:59:44.530Z,4.63
2023-05-01T14:02:20.287Z,5.47
2023-05-01T14:04:47.230Z,5.72
2023-05-01T14:07:23.152Z,5.30
2023-05-01T14:09:57.599Z,6.18
2023-05-01T14:12:29.465Z,5.72
2023-05-01T14:14:56.461Z,6.60
2023-05-01T14:17:41.244Z,6.53
2023-05-01T14:20:08.707Z,5.18
2023-05-01T14:22:46.826Z,5.25
2023-05-01T14:25:34.752Z,5.88
2023-05-01T14:28:05.466Z,5.70
2023-05-01T14:30:33.756Z,5.78
2023-05-01T14:33:05.060Z,5.57
2023-05-01T14:35:31.957Z,7.55
2023-05-01T14:38:07.921Z,6.07
2023-05-01T14:40:34.656Z,5.55
2023-05-01T14:43:01.503Z,5.40
2023-05-01T14:45:28.065Z,4.93
2023-05-01T14:47:54.563Z,6.07
2023-05-01T14:50:24.945Z,4.93
2023-05-01T14:52:59.834Z,5.60
2023-05-01T14:55:29.281Z,5.90
2023-05-01T14:57:56.909Z,5.55
2023-05-01T15:00:24.370Z,5.40
2023-05-01T15:02:51.125Z,5.45
2023-05-01T15:05:17.903Z,6.38
2023-05-01T15:07:44.517Z,5.50
2023-05-01T15:10:11.064Z,5.50
2023-05-01T15:12:37.476Z,5.70
2023-05-01T15:15:04.370Z,5.22
2023-05-01T15:17:32.452Z,5.97
2023-05-01T15:19:59.065Z,5.20
2023-05-01T15:22:25.561Z,5.68
2023-05-01T15:24:52.077Z,5.50
2023-05-01T15:27:18.511Z,18.33
2023-05-01T15:29:44.925Z,50.13
2023-05-01T15:32:12.756Z,103.55
2023-05-01T15:34:40.082Z,22.70
2023-05-01T15:37:06.649Z,8.32
2023-05-01T15:39:33.422Z,22.33
2023-05-01T15:42:00.871Z,9.30
2023-05-01T15:44:28.655Z,5.55
2023-05-01T15:46:55.275Z,5.93
2023-05-01T15:49:21.836Z,5.38
2023-05-01T15:51:48.241Z,7.05
2023-05-01T15:54:14.643Z,6.03
2023-05-01T15:56:41.087Z,7.30
2023-05-01T15:59:08.145Z,6.47
2023-05-01T16:01:35.499Z,6.25
2023-05-01T16:04:03.358Z,6.05
2023-05-01T16:06:31.380Z,6.38
2023-05-01T16:08:59.277Z,6.03
2023-05-01T16:11:25.719Z,5.32
2023-05-01T16:13:54.024Z,6.10
2023-05-01T16:16:25.590Z,6.45
2023-05-01T16:18:55.374Z,5.45
2023-05-01T16:21:22.965Z,4.97
2023-05-01T16:23:50.955Z,5.50
2023-05-01T16:26:28.435Z,4.82
2023-05-01T16:29:02.148Z,4.53
2023-05-01T16:31:37.582Z,5.10
2023-05-01T16:34:06.385Z,5.50
2023-05-01T16:36:36.728Z,5.55
2023-05-01T16:39:04.068Z,6.18
2023-05-01T16:41:30.526Z,5.38
2023-05-01T16:43:59.949Z,6.93
2023-05-01T16:46:26.494Z,5.40
2023-05-01T16:48:53.113Z,5.30
2023-05-01T16:51:19.999Z,5.57
2023-05-01T16:53:46.463Z,5.88
2023-05-01T16:56:12.899Z,5.97
2023-05-01T16:58:39.342Z,6.03
2023-05-01T17:01:05.884Z,5.75
2023-05-01T17:03:32.447Z,6.40
2023-05-01T17:05:59.087Z,5.57
2023-05-01T17:08:26.011Z,5.80
2023-05-01T17:10:52.433Z,5.47
2023-05-01T17:13:19.502Z,5.88
2023-05-01T17:15:45.917Z,6.05
2023-05-01T17:18:12.478Z,5.53
2023-05-01T17:20:38.968Z,5.38
2023-05-01T17:23:05.493Z,5.45
2023-05-01T17:25:32.002Z,5.75
2023-05-01T17:27:59.179Z,6.28
2023-05-01T17:30:25.617Z,5.82
2023-05-01T17:32:52.646Z,5.28
2023-05-01T17:35:19.209Z,6.35
2023-05-01T17:37:45.793Z,5.30
2023-05-01T17:40:12.402Z,5.45
2023-05-01T17:42:39.026Z,6.50
2023-05-01T17:45:07.447Z,5.72
2023-05-01T17:47:34.608Z,6.00
2023-05-01T17:50:04.802Z,5.80
2023-05-01T17:52:32.037Z,6.07
2023-05-01T17:54:59.040Z,6.50
2023-05-01T17:57:25.770Z,9.05
2023-05-01T17:59:52.583Z,10.55
2023-05-01T18:02:19.156Z,10.98
2023-05-01T18:04:49.630Z,8.38
2023-05-01T18:07:16.370Z,8.52
2023-05-01T18:09:43.115Z,8.95
2023-05-01T18:12:10.276Z,8.25
2023-05-01T18:14:37.121Z,7.25
2023-05-01T18:17:03.658Z,6.80
2023-05-01T18:19:34.132Z,7.40
2023-05-01T18:22:00.963Z,6.40
2023-05-01T18:24:27.410Z,6.32
2023-05-01T18:26:53.819Z,6.32
2023-05-01T18:29:22.641Z,6.57
2023-05-01T18:31:50.938Z,7.53
2023-05-01T18:34:19.100Z,7.45
2023-05-01T18:36:48.449Z,8.55
2023-05-01T18:39:14.874Z,8.13
2023-05-01T18:41:41.492Z,8.13
2023-05-01T18:44:07.894Z,8.25
2023-05-01T18:46:34.403Z,8.32
2023-05-01T18:49:01.289Z,8.07
2023-05-01T18:51:27.749Z,7.40
2023-05-01T18:53:54.593Z,7.57
2023-05-01T18:56:21.986Z,8.15
2023-05-01T18:58:48.438Z,8.73
2023-05-01T19:01:14.873Z,8.35
2023-05-01T19:03:41.321Z,7.70
2023-05-01T19:06:10.335Z,7.70
2023-05-01T19:08:37.062Z,8.18
2023-05-01T19:11:04.725Z,6.72
2023-05-01T19:13:32.310Z,6.75
2023-05-01T19:15:58.802Z,6.32
2023-05-01T19:18:25.833Z,5.85
2023-05-01T19:20:52.239Z,6.63
2023-05-01T19:23:18.686Z,6.55
2023-05-01T19:25:45.140Z,7.28
2023-05-01T19:28:11.561Z,6.63
2023-05-01T19:30:37.978Z,8.38
2023-05-01T19:33:04.540Z,8.50
2023-05-01T19:35:31.008Z,8.93
2023-05-01T19:37:58.314Z,7.63
2023-05-01T19:40:24.864Z,8.20
2023-05-01T19:42:51.530Z,7.68
2023-05-01T19:45:18.169Z,7.75
2023-05-01T19:47:45.802Z,7.43
2023-05-01T19:50:12.400Z,8.63
2023-05-01T19:52:38.838Z,8.00
2023-05-01T19:55:05.597Z,7.20
2023-05-01T19:57:32.154Z,7.88
2023-05-01T19:59:59.114Z,7.18
2023-05-01T20:02:25.814Z,7.25
2023-05-01T20:04:52.373Z,8.52
2023-05-01T20:07:18.862Z,8.45
2023-05-01T20:09:45.303Z,7.30
2023-05-01T20:12:12.066Z,7.65
2023-05-01T20:14:38.468Z,7.15
2023-05-01T20:17:07.058Z,6.95
2023-05-01T20:19:33.770Z,7.30
2023-05-01T20:22:00.164Z,7.40
2023-05-01T20:24:26.633Z,8.20
2023-05-01T20:26:55.571Z,6.90
2023-05-01T20:29:21.999Z,7.63
2023-05-01T20:31:49.037Z,7.57
2023-05-01T20:34:15.556Z,6.93
2023-05-01T20:36:42.302Z,8.68
2023-05-01T20:39:08.778Z,8.80
2023-05-01T20:41:35.181Z,9.38
2023-05-01T20:44:02.320Z,9.57
2023-05-01T20:46:29.036Z,9.23
2023-05-01T20:48:55.962Z,9.07
2023-05-01T20:51:22.448Z,9.15
2023-05-01T20:53:48.910Z,8.43
2023-05-01T20:56:15.359Z,9.07
2023-05-01T20:58:41.791Z,8.27
2023-05-01T21:01:08.329Z,9.02
2023-05-01T21:03:34.878Z,8.95
2023-05-01T21:06:01.921Z,8.02
2023-05-01T21:08:28.925Z,7.90
2023-05-01T21:10:55.634Z,7.70
2023-05-01T21:13:24.633Z,7.63
2023-05-01T21:15:52.255Z,8.35
2023-05-01T21:18:20.350Z,8.20
2023-05-01T21:20:48.630Z,8.75
2023-05-01T21:23:16.067Z,9.50
2023-05-01T21:25:42.764Z,8.32
2023-05-01T21:28:13.648Z,9.15
2023-05-01T21:30:40.548Z,10.77
2023-05-01T21:33:14.328Z,9.98
2023-05-01T21:35:42.878Z,9.38
2023-05-01T21:38:09.811Z,8.93
2023-05-01T21:40:38.124Z,8.98
2023-05-01T21:43:05.845Z,9.82
2023-05-01T21:45:34.280Z,9.52
2023-05-01T21:48:00.781Z,9.25
2023-05-01T21:50:33.676Z,9.65
2023-05-01T21:53:00.180Z,9.27
2023-05-01T21:55:26.591Z,9.00
2023-05-01T21:57:53.359Z,9.18
2023-05-01T22:00:20.943Z,9.40
2023-05-01T22:02:49.631Z,8.27
2023-05-01T22:05:18.250Z,8.43
2023-05-01T22:07:46.213Z,8.88
2023-05-01T22:10:15.590Z,8.90
2023-05-01T22:12:42.856Z,9.55
2023-05-01T22:15:10.953Z,9.15
2023-05-01T22:17:38.484Z,8.43
2023-05-01T22:20:07.112Z,7.55
2023-05-01T22:22:34.450Z,7.93
2023-05-01T22:25:00.886Z,7.35
2023-05-01T22:27:27.321Z,6.90
2023-05-01T22:29:53.947Z,6.85
2023-05-01T22:32:20.749Z,6.72
2023-05-01T22:34:47.423Z,6.95
2023-05-01T22:37:13.948Z,7.18
2023-05-01T22:39:40.346Z,7.32
2023-05-01T22:42:06.782Z,7.00
2023-05-01T22:44:33.313Z,6.30
2023-05-01T22:46:59.710Z,6.10
2023-05-01T22:49:28.500Z,7.13
2023-05-01T22:51:55.502Z,7.13
2023-05-01T22:54:22.121Z,6.60
2023-05-01T22:56:49.895Z,7.75
2023-05-01T22:59:16.921Z,6.47
2023-05-01T23:01:44.537Z,7.55
2023-05-01T23:04:11.590Z,7.00
2023-05-01T23:06:38.250Z,7.65
2023-05-01T23:09:04.685Z,6.68
2023-05-01T23:11:32.524Z,6.60
2023-05-01T23:13:59.662Z,7.38
2023-05-01T23:16:26.419Z,5.78
2023-05-01T23:18:52.968Z,6.97
2023-05-01T23:21:19.705Z,6.68
2023-05-01T23:23:47.028Z,7.60
2023-05-01T23:26:25.452Z,6.55
2023-05-01T23:28:53.071Z,6.70
2023-05-01T23:31:27.497Z,6.75
2023-05-01T23:33:55.271Z,6.40
2023-05-01T23:36:22.264Z,6.72
2023-05-01T23:38:48.712Z,7.03
2023-05-01T23:41:15.406Z,6.20
2023-05-01T23:43:42.490Z,7.10
2023-05-01T23:46:08.901Z,6.88
2023-05-01T23:48:36.151Z,6.72
2023-05-01T23:51:03.213Z,7.15
2023-05-01T23:53:30.458Z,8.20
2023-05-01T23:55:57.148Z,6.85
2023-05-01T23:58:23.772Z,7.13
